Time;durP1;ratioP1;P1;durP2;ratioP2;P2;SDS_P1;SDS_P2;PMS_P1;PMS_P2;Temp;Humidity;BMP_temperature;BMP_pressure;BME280_temperature;BME280_humidity;BME280_pressure;Samples;Min_cycle;Max_cycle;Signal;HPM_P1;HPM_P2
2022/06/03 02:45:53;;;;;;;7.90;5.32;;;12.20;99.90;;;;;;5101648;27;20392;-58
2022/06/03 02:48:56;;;;;;;10.27;6.18;;;11.70;99.90;;;;;;5100019;28;20035;-59
2022/06/03 02:51:37;;;;;;;9.68;5.82;;;11.70;99.90;;;;;;5090770;28;20059;-58
2022/06/03 02:54:14;;;;;;;;;;;11.80;99.90;;;;;;5102597;28;20028;-57
2022/06/03 02:56:54;;;;;;;11.10;5.32;;;11.80;99.90;;;;;;5105881;28;19908;-59
2022/06/03 02:59:35;;;;;;;9.63;5.82;;;11.90;99.90;;;;;;5103252;28;20162;-58
2022/06/03 03:02:23;;;;;;;9.07;5.63;;;11.90;99.90;;;;;;5100874;28;20028;-58
2022/06/03 03:05:22;;;;;;;11.15;5.68;;;11.90;99.90;;;;;;5092126;28;20720;-58
2022/06/03 03:08:17;;;;;;;14.98;5.90;;;11.90;99.90;;;;;;5102279;28;20134;-59
2022/06/03 03:11:04;;;;;;;9.30;6.20;;;11.80;99.90;;;;;;5067839;28;20037;-58
2022/06/03 03:13:51;;;;;;;8.20;5.85;;;11.80;99.90;;;;;;5094074;28;20039;-58
2022/06/03 03:16:54;;;;;;;9.15;5.93;;;11.80;99.90;;;;;;5098956;28;20046;-60
2022/06/03 03:20:07;;;;;;;8.93;5.68;;;11.80;99.90;;;;;;5097457;28;20039;-60
2022/06/03 03:22:47;;;;;;;12.98;5.72;;;12.00;99.90;;;;;;5069905;28;20058;-58
2022/06/03 03:25:13;;;;;;;;;;;11.90;99.90;;;;;;5095605;28;20477;-59
2022/06/03 03:28:03;;;;;;;12.02;6.10;;;12.00;99.90;;;;;;5104086;28;19907;-58
2022/06/03 03:30:56;;;;;;;8.90;5.53;;;12.00;99.90;;;;;;5101668;28;20402;-59
2022/06/03 03:33:36;;;;;;;8.57;5.88;;;11.90;99.90;;;;;;5104901;28;20164;-58
2022/06/03 03:36:05;;;;;;;8.82;6.10;;;11.90;99.90;;;;;;5099593;28;20114;-58
2022/06/03 03:38:52;;;;;;;8.82;5.50;;;12.10;99.90;;;;;;5099020;28;20101;-58
2022/06/03 03:41:19;;;;;;;9.95;6.03;;;12.20;99.90;;;;;;5087915;28;20031;-60
2022/06/03 03:44:05;;;;;;;8.57;5.47;;;12.10;99.90;;;;;;5103260;28;20101;-58
2022/06/03 03:47:18;;;;;;;9.85;6.35;;;12.20;99.90;;;;;;5090620;28;20028;-58
2022/06/03 03:50:26;;;;;;;11.40;5.93;;;12.30;99.90;;;;;;5063688;28;20145;-58
2022/06/03 03:53:11;;;;;;;9.38;6.45;;;12.20;99.90;;;;;;5085588;28;20028;-61
2022/06/03 03:56:24;;;;;;;9.55;5.85;;;12.20;99.90;;;;;;5082766;28;20668;-61
2022/06/03 03:59:09;;;;;;;12.55;5.97;;;12.10;99.90;;;;;;5043091;28;20690;-61
2022/06/03 04:01:53;;;;;;;9.45;6.60;;;12.00;99.90;;;;;;5085481;28;20489;-60
2022/06/03 04:04:56;;;;;;;7.28;5.35;;;12.20;99.90;;;;;;5071495;28;20040;-61
2022/06/03 04:07:43;;;;;;;8.00;5.55;;;12.20;99.90;;;;;;5070518;28;20029;-60
2022/06/03 04:10:26;;;;;;;8.23;5.22;;;12.30;99.90;;;;;;5086225;28;20028;-61
2022/06/03 04:13:10;;;;;;;11.45;6.22;;;12.40;99.90;;;;;;5071167;28;20020;-61
2022/06/03 04:16:06;;;;;;;9.25;6.07;;;12.40;99.90;;;;;;5079403;28;20065;-61
2022/06/03 04:19:09;;;;;;;12.10;6.03;;;12.30;99.90;;;;;;5082606;28;20473;-61
2022/06/03 04:22:12;;;;;;;8.27;5.40;;;12.40;99.90;;;;;;5081179;28;20089;-61
2022/06/03 04:24:38;;;;;;;9.15;5.38;;;12.50;99.90;;;;;;5088068;28;20028;-61
2022/06/03 04:27:22;;;;;;;9.93;5.90;;;12.60;99.90;;;;;;5083119;28;20036;-61
2022/06/03 04:29:56;;;;;;;11.73;5.47;;;12.60;99.90;;;;;;5089012;28;20073;-61
2022/06/03 04:32:40;;;;;;;11.75;5.63;;;12.80;99.90;;;;;;5086947;28;20079;-60
2022/06/03 04:35:27;;;;;;;10.02;5.78;;;12.80;99.90;;;;;;5086026;28;20040;-61
2022/06/03 04:37:58;;;;;;;8.77;6.13;;;12.70;99.90;;;;;;5070501;28;20029;-61
2022/06/03 04:40:58;;;;;;;9.30;5.55;;;12.70;99.90;;;;;;5076907;28;20105;-60
2022/06/03 04:44:01;;;;;;;11.15;5.40;;;12.80;99.90;;;;;;5079128;28;20428;-61
2022/06/03 04:46:44;;;;;;;9.73;5.95;;;12.90;99.90;;;;;;5086482;28;20036;-61
2022/06/03 04:49:16;;;;;;;11.00;5.85;;;13.10;99.90;;;;;;5088139;28;20481;-61
2022/06/03 04:52:00;;;;;;;9.10;5.63;;;13.10;99.90;;;;;;5087254;28;20549;-61
2022/06/03 04:54:41;;;;;;;8.43;5.75;;;13.20;99.90;;;;;;5086995;28;20036;-61
2022/06/03 04:57:50;;;;;;;10.10;5.53;;;13.40;99.90;;;;;;5079836;28;20032;-61
2022/06/03 05:00:49;;;;;;;10.55;5.55;;;13.50;99.90;;;;;;5073173;28;20050;-62
2022/06/03 05:03:40;;;;;;;7.88;5.57;;;13.60;99.90;;;;;;5070570;28;20064;-61
2022/06/03 05:06:35;;;;;;;7.45;5.03;;;13.80;99.90;;;;;;5083245;28;20026;-62
2022/06/03 05:09:09;;;;;;;8.10;5.63;;;14.00;99.90;;;;;;5061735;28;20614;-62
2022/06/03 05:12:14;;;;;;;8.05;5.30;;;14.20;99.90;;;;;;5069088;28;20028;-61
2022/06/03 05:14:45;;;;;;;10.23;5.80;;;14.50;99.90;;;;;;5069093;28;20044;-62
2022/06/03 05:17:37;;;;;;;9.18;5.55;;;14.80;99.90;;;;;;5077193;28;20028;-62
2022/06/03 05:20:04;;;;;;;9.85;6.68;;;15.00;99.90;;;;;;5085193;28;20028;-62
2022/06/03 05:22:55;;;;;;;12.85;5.60;;;15.20;99.90;;;;;;5086649;28;20525;-61
2022/06/03 05:25:21;;;;;;;8.98;5.40;;;15.40;99.90;;;;;;5084740;28;20068;-61
2022/06/03 05:28:17;;;;;;;9.85;5.40;;;15.60;99.90;;;;;;5073575;28;20068;-62
2022/06/03 05:31:16;;;;;;;15.30;5.53;;;15.80;99.90;;;;;;5072799;28;20028;-62
2022/06/03 05:34:06;;;;;;;10.50;5.38;;;16.10;99.90;;;;;;5087384;28;20571;-61
2022/06/03 05:36:56;;;;;;;11.18;5.93;;;16.30;99.90;;;;;;5086008;28;20089;-61
2022/06/03 05:39:21;;;;;;;7.63;5.13;;;16.60;99.90;;;;;;5069301;28;20037;-62
2022/06/03 05:42:27;;;;;;;10.02;5.68;;;16.80;99.90;;;;;;5074426;28;20163;-62
2022/06/03 05:45:15;;;;;;;14.52;5.60;;;17.10;99.90;;;;;;5068809;28;20397;-61
2022/06/03 05:47:44;;;;;;;9.25;5.50;;;17.20;99.90;;;;;;5082391;28;20032;-62
2022/06/03 05:50:32;;;;;;;7.90;5.90;;;17.40;99.90;;;;;;5087971;28;20036;-62
2022/06/03 05:53:17;;;;;;;13.25;6.72;;;17.60;99.90;;;;;;5086198;28;20080;-62
2022/06/03 05:55:51;;;;;;;19.60;7.65;;;17.80;99.90;;;;;;5084925;28;20108;-62
2022/06/03 05:58:29;;;;;;;20.02;7.60;;;17.90;99.90;;;;;;5088855;28;20031;-62
2022/06/03 06:01:49;;;;;;;17.45;7.00;;;18.00;99.90;;;;;;5081330;28;20153;-61
2022/06/03 06:04:40;;;;;;;9.23;5.50;;;18.10;99.90;;;;;;5044800;28;20072;-62
2022/06/03 06:07:23;;;;;;;9.85;5.55;;;18.50;99.90;;;;;;5076413;28;20274;-63
2022/06/03 06:10:05;;;;;;;11.15;5.72;;;18.60;99.90;;;;;;5081868;28;20082;-62
2022/06/03 06:12:40;;;;;;;11.63;5.75;;;18.80;99.90;;;;;;5078262;28;20031;-62
2022/06/03 06:15:42;;;;;;;8.48;5.75;;;19.00;99.90;;;;;;5088782;28;20479;-62
2022/06/03 06:18:14;;;;;;;10.48;5.78;;;19.10;99.90;;;;;;5080879;28;20378;-62
2022/06/03 06:21:02;;;;;;;7.85;5.30;;;19.20;99.90;;;;;;5087559;28;20043;-62
2022/06/03 06:23:41;;;;;;;8.55;5.85;;;19.40;99.90;;;;;;5086428;28;20121;-62
2022/06/03 06:26:13;;;;;;;10.63;6.25;;;19.50;99.90;;;;;;5084691;28;20024;-62
2022/06/03 06:29:16;;;;;;;8.60;5.72;;;19.60;99.90;;;;;;5085074;28;20036;-64
2022/06/03 06:31:45;;;;;;;8.65;6.13;;;19.70;99.90;;;;;;5081515;28;20381;-62
2022/06/03 06:34:19;;;;;;;8.32;5.63;;;19.80;99.90;;;;;;5088447;28;20032;-62
2022/06/03 06:37:21;;;;;;;8.77;5.70;;;19.90;99.90;;;;;;5078957;28;20380;-63
2022/06/03 06:40:23;;;;;;;8.50;5.80;;;20.10;99.90;;;;;;5086271;28;20143;-62
2022/06/03 06:43:08;;;;;;;12.60;6.13;;;20.30;99.90;;;;;;5072159;28;20017;-62
2022/06/03 06:45:39;;;;;;;12.18;5.80;;;20.40;99.90;;;;;;5067169;28;20052;-62
2022/06/03 06:48:29;;;;;;;7.40;5.75;;;20.50;99.90;;;;;;5079097;28;20408;-63
2022/06/03 06:51:24;;;;;;;10.98;6.30;;;20.50;99.90;;;;;;5085151;28;20032;-62
2022/06/03 06:54:17;;;;;;;6.78;5.30;;;20.60;99.90;;;;;;5078083;28;20519;-64
2022/06/03 06:57:00;;;;;;;7.75;5.63;;;20.90;99.90;;;;;;5074049;28;20028;-62
2022/06/03 06:59:43;;;;;;;8.27;5.80;;;21.00;99.90;;;;;;5077932;28;20469;-62
2022/06/03 07:02:40;;;;;;;8.82;5.65;;;21.20;99.90;;;;;;5069099;28;20032;-63
2022/06/03 07:05:11;;;;;;;10.02;6.25;;;21.20;99.90;;;;;;5073416;28;20036;-62
2022/06/03 07:07:51;;;;;;;7.85;6.03;;;21.30;99.90;;;;;;5076319;28;20086;-63
2022/06/03 07:10:40;;;;;;;9.95;5.80;;;21.40;99.90;;;;;;5080284;28;20032;-63
2022/06/03 07:13:18;;;;;;;7.38;5.60;;;21.50;99.90;;;;;;5079637;28;20040;-64
2022/06/03 07:15:44;;;;;;;7.53;5.40;;;21.60;99.90;;;;;;5072101;28;20036;-64
2022/06/03 07:21:15;;;;;;;8.80;5.28;;;22.00;99.90;;;;;;5074030;28;20102;-64
2022/06/03 07:24:00;;;;;;;7.15;5.45;;;22.10;99.90;;;;;;5078478;28;20488;-62
2022/06/03 07:26:36;;;;;;;8.18;5.15;;;22.20;99.90;;;;;;5086535;28;20031;-63
2022/06/03 07:29:14;;;;;;;8.60;5.35;;;22.30;99.90;;;;;;5074365;28;20027;-64
2022/06/03 07:31:49;;;;;;;10.13;5.45;;;22.40;99.90;;;;;;5074508;28;20028;-63
2022/06/03 07:34:32;;;;;;;9.27;5.57;;;22.40;99.90;;;;;;5082185;28;20051;-63
2022/06/03 07:37:36;;;;;;;8.27;5.68;;;22.60;99.90;;;;;;5079047;28;20081;-63
2022/06/03 07:40:12;;;;;;;8.25;5.45;;;22.70;99.90;;;;;;5070514;28;20036;-64
2022/06/03 07:43:06;;;;;;;7.93;5.20;;;22.90;99.90;;;;;;5088164;28;20056;-64
2022/06/03 07:45:47;;;;;;;7.38;5.50;;;22.70;99.90;;;;;;5073896;28;20067;-63
2022/06/03 07:48:20;;;;;;;11.43;5.53;;;22.70;99.90;;;;;;5084066;28;20029;-67
2022/06/03 07:50:58;;;;;;;7.47;5.20;;;22.90;99.90;;;;;;5074029;28;20462;-65
2022/06/03 07:53:30;;;;;;;9.23;5.15;;;23.00;99.90;;;;;;5088223;28;20389;-64
2022/06/03 07:55:57;;;;;;;6.38;5.10;;;23.20;99.90;;;;;;5078899;28;20086;-65
2022/06/03 07:58:24;;;;;;;7.60;5.50;;;23.30;99.90;;;;;;5085543;28;20024;-63
2022/06/03 08:00:51;;;;;;;6.70;4.72;;;23.40;99.90;;;;;;5081485;28;20070;-64
2022/06/03 08:03:19;;;;;;;11.25;5.10;;;23.30;99.90;;;;;;5075076;28;20055;-65
2022/06/03 08:05:48;;;;;;;10.93;5.35;;;23.30;99.90;;;;;;5090577;28;20486;-65
2022/06/03 08:11:24;;;;;;;7.35;5.10;;;23.50;99.90;;;;;;5083874;28;20035;-68
2022/06/03 08:13:53;;;;;;;7.35;5.15;;;23.80;99.90;;;;;;5075140;28;20048;-63
2022/06/03 08:16:42;;;;;;;7.95;4.78;;;24.00;99.90;;;;;;5091506;28;20032;-64
2022/06/03 08:19:21;;;;;;;10.13;4.97;;;24.10;99.90;;;;;;5089772;28;20122;-65
2022/06/03 08:21:53;;;;;;;11.80;5.10;;;24.20;99.90;;;;;;5084817;28;20031;-64
2022/06/03 08:24:25;;;;;;;8.00;4.97;;;24.30;99.90;;;;;;5077203;28;20028;-65
2022/06/03 08:27:02;;;;;;;14.23;5.53;;;24.50;99.90;;;;;;5080919;28;20024;-64
2022/06/03 08:29:43;;;;;;;10.02;5.03;;;24.60;99.90;;;;;;5070943;28;20032;-66
2022/06/03 08:32:15;;;;;;;9.38;5.22;;;24.70;99.90;;;;;;5077934;28;20134;-66
2022/06/03 08:34:49;;;;;;;6.38;5.07;;;24.80;99.90;;;;;;5079807;28;20443;-65
2022/06/03 08:37:21;;;;;;;12.60;5.30;;;24.90;99.90;;;;;;5083019;28;20059;-65
2022/06/03 08:39:48;;;;;;;8.45;5.28;;;24.90;99.90;;;;;;5086159;28;20032;-64
2022/06/03 08:42:27;;;;;;;7.70;5.30;;;25.10;99.90;;;;;;5071744;28;20040;-64
2022/06/03 08:45:07;;;;;;;7.90;5.00;;;25.20;99.90;;;;;;5086308;28;20040;-63
2022/06/03 08:47:57;;;;;;;8.15;4.97;;;25.40;99.90;;;;;;5090969;28;20028;-63
2022/06/03 08:50:43;;;;;;;8.48;5.88;;;25.50;99.60;;;;;;5087700;28;20040;-63
2022/06/03 08:53:17;;;;;;;32.40;6.80;;;25.50;98.70;;;;;;5088440;28;20043;-64
2022/06/03 08:56:09;;;;;;;10.18;5.57;;;25.40;99.90;;;;;;5088368;28;20534;-65
2022/06/03 08:58:55;;;;;;;14.15;5.93;;;25.60;98.90;;;;;;5085779;28;20028;-63
2022/06/03 09:01:58;;;;;;;5.68;4.57;;;25.70;99.00;;;;;;5086397;28;20493;-65
2022/06/03 09:04:46;;;;;;;9.57;5.18;;;25.80;98.50;;;;;;5076095;28;20137;-64
2022/06/03 09:07:44;;;;;;;12.18;5.00;;;25.80;97.10;;;;;;5073636;28;20478;-65
2022/06/03 09:10:23;;;;;;;18.67;5.78;;;26.10;99.30;;;;;;5089243;28;20028;-65
2022/06/03 09:13:04;;;;;;;9.30;5.82;;;26.40;97.90;;;;;;5082027;28;20107;-64
2022/06/03 09:15:38;;;;;;;12.82;4.88;;;26.50;96.80;;;;;;5088583;28;20051;-66
2022/06/03 09:18:27;;;;;;;13.15;5.05;;;26.30;97.70;;;;;;5088662;28;20028;-64
2022/06/03 09:21:03;;;;;;;11.43;4.95;;;26.30;96.70;;;;;;5081170;28;20036;-65
2022/06/03 09:23:36;;;;;;;9.77;5.30;;;26.40;97.30;;;;;;5071941;28;20447;-64
2022/06/03 09:26:02;;;;;;;8.48;4.97;;;26.70;96.40;;;;;;5087296;28;20032;-65
2022/06/03 09:28:32;;;;;;;8.93;5.30;;;26.60;96.10;;;;;;5088318;28;20470;-65
2022/06/03 09:31:05;;;;;;;12.02;5.45;;;26.70;95.60;;;;;;5073842;28;20033;-64
2022/06/03 09:33:33;;;;;;;13.27;6.13;;;26.30;96.70;;;;;;5084172;28;20047;-65
2022/06/03 09:36:03;;;;;;;14.50;5.53;;;26.10;96.80;;;;;;5085870;28;20028;-63
2022/06/03 09:38:39;;;;;;;8.60;5.18;;;26.30;97.00;;;;;;5085672;28;20405;-64
2022/06/03 09:41:05;;;;;;;11.65;4.93;;;26.50;95.50;;;;;;5088082;28;20020;-63
2022/06/03 09:43:43;;;;;;;11.38;4.72;;;26.40;94.80;;;;;;5085179;28;20509;-65
2022/06/03 09:46:11;;;;;;;8.23;4.68;;;26.30;96.50;;;;;;5079345;28;20044;-63
2022/06/03 09:48:40;;;;;;;9.43;4.70;;;26.30;94.70;;;;;;5071848;28;20116;-63
2022/06/03 09:51:15;;;;;;;6.05;4.75;;;26.70;95.70;;;;;;5083017;28;20038;-72
2022/06/03 09:53:43;;;;;;;7.00;4.90;;;27.00;94.70;;;;;;5087807;28;20054;-72
2022/06/03 09:56:26;;;;;;;9.13;5.50;;;27.10;94.90;;;;;;5081782;28;20398;-65
2022/06/03 09:58:58;;;;;;;9.88;4.45;;;27.30;92.80;;;;;;5068382;28;20116;-66
2022/06/03 10:01:24;;;;;;;16.52;4.82;;;27.40;94.20;;;;;;5084162;28;20115;-72
2022/06/03 10:03:56;;;;;;;12.55;4.82;;;27.70;93.20;;;;;;5069201;28;20124;-69
2022/06/03 10:14:34;;;;;;;22.75;5.93;;;28.10;89.60;;;;;;5078133;28;20078;-65
2022/06/03 10:17:00;;;;;;;6.10;4.45;;;28.10;89.90;;;;;;5086790;28;20679;-65
2022/06/03 10:19:26;;;;;;;6.85;4.43;;;28.30;90.10;;;;;;5088470;28;20028;-64
2022/06/03 10:21:54;;;;;;;6.97;4.10;;;28.60;90.60;;;;;;5087195;28;20063;-62
2022/06/03 10:24:29;;;;;;;6.47;4.05;;;28.90;88.20;;;;;;5086127;28;20040;-64
2022/06/03 10:27:02;;;;;;;8.60;4.40;;;28.70;85.60;;;;;;5077569;28;20127;-64
2022/06/03 10:29:29;;;;;;;5.18;3.75;;;28.70;87.30;;;;;;5077052;28;20119;-65
2022/06/03 10:32:00;;;;;;;7.35;4.47;;;29.00;86.00;;;;;;5077201;28;20028;-64
2022/06/03 10:34:31;;;;;;;8.00;3.65;;;29.00;85.10;;;;;;5089083;28;20035;-63
2022/06/03 10:36:57;;;;;;;6.00;3.75;;;29.10;83.50;;;;;;5086906;28;20534;-66
2022/06/03 10:39:30;;;;;;;9.75;4.13;;;29.00;82.20;;;;;;5076242;28;20036;-64
2022/06/03 10:41:58;;;;;;;4.93;4.10;;;28.80;81.10;;;;;;5087084;28;20427;-63
2022/06/03 10:44:33;;;;;;;5.95;3.70;;;28.70;85.20;;;;;;5073657;28;20057;-63
2022/06/03 10:47:07;;;;;;;7.97;3.95;;;28.70;85.00;;;;;;5067857;28;20474;-63
2022/06/03 10:49:37;;;;;;;5.63;3.72;;;28.90;77.40;;;;;;5073569;28;20103;-64
2022/06/03 11:03:29;;;;;;;6.55;2.83;;;29.80;74.40;;;;;;5082474;28;20102;-64
2022/06/03 11:05:55;;;;;;;7.90;2.83;;;29.50;73.80;;;;;;5082813;28;20512;-71
2022/06/03 11:08:21;;;;;;;5.57;3.20;;;29.50;68.40;;;;;;5090046;28;20076;-63
2022/06/03 11:10:55;;;;;;;6.97;4.03;;;29.60;66.90;;;;;;5089599;28;20079;-66
2022/06/03 11:13:37;;;;;;;6.45;3.28;;;29.50;67.20;;;;;;5092514;28;20036;-63
2022/06/03 11:16:21;;;;;;;4.70;2.83;;;29.70;70.10;;;;;;5080253;28;20056;-71
2022/06/03 11:18:47;;;;;;;4.60;2.85;;;29.90;66.70;;;;;;5087085;28;20035;-67
2022/06/03 11:21:25;;;;;;;5.55;2.90;;;30.00;64.90;;;;;;5078729;28;20032;-65
2022/06/03 11:23:53;;;;;;;3.10;2.78;;;30.10;63.00;;;;;;5090763;28;20047;-62
2022/06/03 11:26:19;;;;;;;4.75;2.72;;;30.20;61.70;;;;;;5091827;28;20446;-64
2022/06/03 11:28:52;;;;;;;2.85;2.40;;;30.20;65.60;;;;;;5090881;28;20373;-70
2022/06/03 11:31:29;;;;;;;4.50;2.45;;;30.00;65.20;;;;;;5085464;28;20031;-64
2022/06/03 11:34:04;;;;;;;3.58;2.80;;;30.10;63.30;;;;;;5081522;28;20086;-63
2022/06/03 11:36:36;;;;;;;5.00;2.80;;;29.80;61.00;;;;;;5089784;28;20111;-64
2022/06/03 11:39:30;;;;;;;3.97;2.97;;;30.10;61.00;;;;;;5084184;28;20466;-65
2022/06/03 11:41:58;;;;;;;3.65;2.58;;;30.40;60.40;;;;;;5084335;28;20549;-63
2022/06/03 11:44:39;;;;;;;8.07;2.50;;;30.80;61.60;;;;;;5086084;28;20490;-63
2022/06/03 11:47:17;;;;;;;4.43;2.47;;;31.00;59.10;;;;;;5081814;28;20055;-66
2022/06/03 11:49:42;;;;;;;3.95;2.85;;;31.20;57.40;;;;;;5080238;28;20165;-64
2022/06/03 11:52:09;;;;;;;5.78;2.38;;;31.60;56.90;;;;;;5087741;28;20127;-63
2022/06/03 11:54:37;;;;;;;3.75;2.70;;;31.90;55.90;;;;;;5077519;28;20055;-65
2022/06/03 11:57:03;;;;;;;5.57;3.22;;;31.70;54.20;;;;;;5086631;28;20032;-64
2022/06/03 12:00:01;;;;;;;4.55;3.00;;;31.30;56.30;;;;;;5087855;28;20024;-65
2022/06/03 12:02:44;;;;;;;3.58;2.80;;;30.50;58.90;;;;;;5090861;28;20071;-63
2022/06/03 12:05:16;;;;;;;2.60;2.40;;;29.80;63.20;;;;;;5083307;28;20037;-64
2022/06/03 12:07:50;;;;;;;4.18;2.40;;;29.60;61.60;;;;;;5071039;28;20021;-62
2022/06/03 12:10:24;;;;;;;3.17;2.35;;;29.40;59.30;;;;;;5080552;28;20032;-63
2022/06/03 12:13:31;;;;;;;2.60;2.40;;;29.30;63.10;;;;;;5087591;28;20029;-70
2022/06/03 12:15:57;;;;;;;3.38;2.47;;;29.10;60.30;;;;;;5078046;28;20059;-62
2022/06/03 12:18:35;;;;;;;3.15;2.60;;;29.00;59.80;;;;;;5078635;28;20089;-63
2022/06/03 12:21:12;;;;;;;5.30;2.63;;;29.20;60.70;;;;;;5074702;28;20051;-61
2022/06/03 12:23:37;;;;;;;2.80;2.30;;;29.40;64.20;;;;;;5072677;28;20040;-64
2022/06/03 12:26:20;;;;;;;3.25;2.05;;;29.60;62.30;;;;;;5071084;28;20028;-62
2022/06/03 12:28:50;;;;;;;4.70;2.60;;;29.60;59.70;;;;;;5075839;28;20382;-60
2022/06/03 12:31:35;;;;;;;2.95;2.25;;;29.20;59.10;;;;;;5083343;28;20025;-60
2022/06/03 12:34:06;;;;;;;4.00;2.20;;;28.80;59.70;;;;;;5076821;28;20048;-61
2022/06/03 12:36:47;;;;;;;3.17;2.40;;;28.40;64.70;;;;;;5077690;28;20107;-61
2022/06/03 12:39:31;;;;;;;5.75;2.70;;;28.10;66.30;;;;;;5076927;28;20067;-61
2022/06/03 12:42:04;;;;;;;3.58;2.60;;;27.90;63.20;;;;;;5085496;28;20241;-62
2022/06/03 12:44:41;;;;;;;4.80;2.85;;;27.80;61.50;;;;;;5088154;28;20059;-62
2022/06/03 12:47:28;;;;;;;3.63;2.20;;;27.70;62.70;;;;;;5076525;28;20028;-61
2022/06/03 12:50:06;;;;;;;5.05;2.50;;;27.80;64.70;;;;;;5089859;28;20473;-66
2022/06/03 12:52:35;;;;;;;3.50;2.60;;;28.00;63.20;;;;;;5090399;28;20424;-63
2022/06/03 12:55:13;;;;;;;3.78;2.60;;;28.30;64.50;;;;;;5089849;28;20036;-61
2022/06/03 12:57:45;;;;;;;6.45;2.50;;;28.50;66.90;;;;;;5090720;28;20040;-64
2022/06/03 13:00:14;;;;;;;4.95;2.53;;;28.70;61.30;;;;;;5089694;28;20034;-61
2022/06/03 13:02:56;;;;;;;5.13;2.40;;;28.80;60.90;;;;;;5090574;28;20095;-63
2022/06/03 13:05:42;;;;;;;3.30;2.40;;;28.70;61.90;;;;;;5072028;28;20504;-61
2022/06/03 13:08:26;;;;;;;4.00;2.47;;;28.80;61.70;;;;;;5069211;28;20027;-62
2022/06/03 13:11:09;;;;;;;5.13;2.53;;;28.80;61.20;;;;;;5088405;28;20486;-68
2022/06/03 13:13:55;;;;;;;4.93;2.40;;;28.90;64.00;;;;;;5090281;28;20040;-62
2022/06/03 13:16:20;;;;;;;3.70;2.58;;;28.60;61.70;;;;;;5090282;28;20028;-61
2022/06/03 13:18:52;;;;;;;4.45;3.00;;;28.20;61.50;;;;;;5089116;28;20028;-61
2022/06/03 13:21:19;;;;;;;4.07;2.22;;;28.00;64.50;;;;;;5087771;28;20028;-62
2022/06/03 13:23:51;;;;;;;4.18;2.72;;;27.90;64.30;;;;;;5090134;28;20028;-61
2022/06/03 13:26:27;;;;;;;3.72;2.80;;;27.90;65.80;;;;;;5089674;28;20028;-63
2022/06/03 13:29:08;;;;;;;5.40;2.47;;;27.80;64.10;;;;;;5086111;28;20021;-69
2022/06/03 13:31:40;;;;;;;4.30;2.72;;;27.90;65.10;;;;;;5069963;28;20060;-63
2022/06/03 13:34:09;;;;;;;5.53;2.67;;;27.70;63.00;;;;;;5068651;28;20078;-61
2022/06/03 13:36:50;;;;;;;3.95;2.63;;;27.60;66.40;;;;;;5069696;28;20029;-62
2022/06/03 13:39:24;;;;;;;3.22;2.58;;;27.40;67.20;;;;;;5080508;28;20132;-62
2022/06/03 13:45:02;;;;;;;5.10;3.08;;;27.20;68.40;;;;;;5068352;28;20463;-61
2022/06/03 13:47:40;;;;;;;5.03;2.90;;;26.90;68.40;;;;;;5069344;28;20809;-65
2022/06/03 13:50:17;;;;;;;6.18;2.58;;;26.70;69.80;;;;;;5077126;28;20028;-60
2022/06/03 13:52:52;;;;;;;5.07;2.83;;;26.70;72.90;;;;;;5080863;28;20066;-63
2022/06/03 13:55:23;;;;;;;3.05;2.60;;;26.70;72.80;;;;;;5077558;28;20039;-64
2022/06/03 13:57:53;;;;;;;5.68;3.10;;;26.80;72.30;;;;;;5080071;28;20032;-62
2022/06/03 14:00:25;;;;;;;3.90;3.00;;;26.70;71.40;;;;;;5087474;28;20123;-64
2022/06/03 14:03:07;;;;;;;8.88;3.67;;;26.50;76.20;;;;;;5077102;28;20098;-61
2022/06/03 14:05:40;;;;;;;4.28;3.45;;;26.20;75.80;;;;;;5080969;28;20543;-62
2022/06/03 14:08:38;;;;;;;4.32;3.20;;;26.20;71.90;;;;;;5071576;28;20031;-62
2022/06/03 14:11:04;;;;;;;5.30;3.22;;;26.20;74.40;;;;;;5074316;28;20040;-63
2022/06/03 14:13:35;;;;;;;6.75;3.33;;;26.30;76.80;;;;;;5084063;28;20588;-64
2022/06/03 14:16:20;;;;;;;5.95;3.42;;;26.40;79.70;;;;;;5088249;28;20031;-62
2022/06/03 14:18:48;;;;;;;5.25;3.40;;;26.50;76.90;;;;;;5075577;28;20052;-61
2022/06/03 14:21:21;;;;;;;7.65;3.47;;;26.40;77.50;;;;;;5086404;28;20618;-63
2022/06/03 14:23:49;;;;;;;5.30;3.28;;;26.30;80.30;;;;;;5087769;28;20123;-64
2022/06/03 14:26:31;;;;;;;5.30;3.40;;;26.20;80.80;;;;;;5086895;28;20103;-62
2022/06/03 14:29:16;;;;;;;4.13;3.45;;;26.10;84.70;;;;;;5080558;28;20024;-69
2022/06/03 14:31:59;;;;;;;5.03;3.40;;;26.00;81.30;;;;;;5076767;28;20042;-69
2022/06/03 14:34:27;;;;;;;8.38;3.53;;;25.90;82.60;;;;;;5072654;28;20040;-62
2022/06/03 14:36:58;;;;;;;4.65;3.70;;;25.80;85.70;;;;;;5074629;28;20048;-62
2022/06/03 14:39:31;;;;;;;4.15;3.40;;;25.70;88.70;;;;;;5081872;28;20101;-64
2022/06/03 14:42:03;;;;;;;3.55;3.25;;;25.60;85.00;;;;;;5076962;28;20036;-69
2022/06/03 14:44:30;;;;;;;5.40;3.47;;;25.50;85.30;;;;;;5088778;28;20510;-66
2022/06/03 14:47:12;;;;;;;4.93;3.22;;;25.60;86.70;;;;;;5080172;28;20055;-68
2022/06/03 14:49:40;;;;;;;7.20;3.72;;;25.60;85.20;;;;;;5067216;28;20024;-62
2022/06/03 14:52:27;;;;;;;8.13;3.85;;;25.50;85.80;;;;;;5073754;28;20024;-62
2022/06/03 14:55:00;;;;;;;4.70;3.97;;;25.40;87.00;;;;;;5081171;28;20733;-63
2022/06/03 14:57:39;;;;;;;6.63;4.07;;;25.20;86.60;;;;;;5073421;28;20035;-61
2022/06/03 15:00:30;;;;;;;4.80;4.25;;;25.00;87.60;;;;;;5073998;28;20028;-61
2022/06/03 15:03:03;;;;;;;5.57;4.30;;;24.90;90.40;;;;;;5079190;28;20032;-68
2022/06/03 15:05:36;;;;;;;12.85;5.03;;;24.80;90.90;;;;;;5071679;28;20393;-62
2022/06/03 15:08:07;;;;;;;6.30;4.20;;;24.70;91.60;;;;;;5068008;28;20455;-62
2022/06/03 15:10:34;;;;;;;9.65;4.55;;;24.70;92.10;;;;;;5073929;28;20029;-63
2022/06/03 15:13:00;;;;;;;7.65;4.10;;;24.80;92.40;;;;;;5070921;28;20039;-68
2022/06/03 15:15:33;;;;;;;7.53;3.67;;;24.80;91.70;;;;;;5078960;28;20040;-62
2022/06/03 15:18:21;;;;;;;5.93;3.72;;;24.60;91.70;;;;;;5081826;28;20037;-70
2022/06/03 15:21:21;;;;;;;5.55;3.83;;;24.40;92.80;;;;;;5088551;28;20081;-62
2022/06/03 15:23:51;;;;;;;5.97;3.60;;;24.40;92.30;;;;;;5071719;28;20036;-61
2022/06/03 15:26:19;;;;;;;7.85;4.13;;;24.50;92.40;;;;;;5067590;28;20064;-64
2022/06/03 15:28:56;;;;;;;6.93;4.15;;;24.50;92.50;;;;;;5068273;28;20028;-62
2022/06/03 15:31:26;;;;;;;7.95;3.85;;;24.40;93.30;;;;;;5065849;28;20029;-62
2022/06/03 15:33:56;;;;;;;7.15;4.07;;;24.40;92.90;;;;;;5077315;28;20032;-62
2022/06/03 15:36:25;;;;;;;5.23;4.00;;;24.30;92.90;;;;;;5087683;28;20101;-62
2022/06/03 15:39:22;;;;;;;6.28;3.67;;;24.20;93.40;;;;;;5087236;28;20263;-61
2022/06/03 15:41:50;;;;;;;7.25;3.72;;;24.20;94.10;;;;;;5086971;28;20465;-62
2022/06/03 15:44:34;;;;;;;7.47;4.10;;;24.20;94.00;;;;;;5089519;28;20052;-61
2022/06/03 15:47:05;;;;;;;5.35;3.83;;;24.10;94.40;;;;;;5071505;28;20040;-69
2022/06/03 15:49:33;;;;;;;7.93;3.95;;;24.00;93.70;;;;;;5071363;28;20035;-62
2022/06/03 15:51:59;;;;;;;5.43;3.90;;;24.00;94.80;;;;;;5073662;28;20052;-70
2022/06/03 15:54:27;;;;;;;5.65;4.18;;;24.20;94.20;;;;;;5090074;28;20071;-63
2022/06/03 15:57:17;;;;;;;8.07;4.55;;;24.20;94.60;;;;;;5090440;28;20035;-63
2022/06/03 15:59:51;;;;;;;5.20;4.18;;;24.30;94.10;;;;;;5091929;28;20024;-62
2022/06/03 16:02:28;;;;;;;8.02;4.25;;;24.40;94.90;;;;;;5075649;28;20032;-62
2022/06/03 16:05:00;;;;;;;10.40;4.50;;;24.40;95.80;;;;;;5082812;28;20035;-66
2022/06/03 16:08:06;;;;;;;9.05;3.95;;;24.40;96.20;;;;;;5090476;28;20032;-62
2022/06/03 16:10:43;;;;;;;9.60;4.15;;;24.40;96.60;;;;;;5087916;28;20040;-61
2022/06/03 16:13:35;;;;;;;5.65;4.10;;;24.40;96.40;;;;;;5090688;28;20094;-65
2022/06/03 16:16:27;;;;;;;5.20;4.40;;;24.40;96.80;;;;;;5090928;28;20438;-69
2022/06/03 16:19:20;;;;;;;9.00;4.85;;;24.40;97.10;;;;;;5073461;28;20031;-62
2022/06/03 16:21:58;;;;;;;6.53;4.07;;;24.40;98.40;;;;;;5078562;28;20454;-62
2022/06/03 16:24:57;;;;;;;4.90;4.25;;;24.30;96.90;;;;;;5073634;28;20107;-66
2022/06/03 16:27:42;;;;;;;8.48;4.47;;;24.20;97.20;;;;;;5088704;28;20104;-64
2022/06/03 16:30:28;;;;;;;6.70;4.50;;;24.20;98.00;;;;;;5086303;28;20020;-62
2022/06/03 16:33:05;;;;;;;6.47;5.07;;;24.30;98.70;;;;;;5082939;28;20068;-65
2022/06/03 16:35:39;;;;;;;10.02;5.60;;;24.20;98.60;;;;;;5090891;28;20071;-61
2022/06/03 16:38:22;;;;;;;10.48;5.65;;;24.20;98.60;;;;;;5088931;28;20086;-69
2022/06/03 16:41:12;;;;;;;11.40;5.55;;;24.10;99.10;;;;;;5071017;28;20042;-64
2022/06/03 16:43:57;;;;;;;10.70;5.40;;;24.10;99.90;;;;;;5071203;28;20045;-64
2022/06/03 16:46:30;;;;;;;7.97;5.68;;;24.10;99.90;;;;;;5082290;28;20028;-62
2022/06/03 16:49:07;;;;;;;8.45;5.18;;;24.00;99.90;;;;;;5079232;28;20385;-62
2022/06/03 16:51:35;;;;;;;11.02;5.47;;;24.00;99.90;;;;;;5085225;28;20544;-62
2022/06/03 16:54:02;;;;;;;7.85;4.40;;;24.00;99.90;;;;;;5082618;28;20424;-61
2022/06/03 16:56:32;;;;;;;5.28;3.80;;;23.90;99.10;;;;;;5088764;28;20024;-61
2022/06/03 16:59:09;;;;;;;5.43;3.75;;;23.90;97.80;;;;;;5083391;28;20032;-63
2022/06/03 17:01:38;;;;;;;6.50;3.78;;;23.90;97.80;;;;;;5082191;28;20032;-62